SCELSAME

Guest
Details From SCEL - Arturo Merino Benitez Intl
To SAME - El Plumerillo
Flight Number -
Tags generated
Created
Modified
Stats Distance 106 nm / 197 km
Max Altitude 0 ft / 0 m
Waypoints 3
Social Downloads 1
Likes 0
Share VATSIM

Download

Looking for another format? Having issues loading an existing format? Contact us
Advertisement - Login to hide

Notes

Basic altitude profile: - Ascent Rate: 1300ft/min - Ascent Speed: 220kts - Cruise Altitude: 15000ft - Cruise Speed: 180kts - Descent Rate: 900ft/min - Descent Speed: 120kts Options: - Use NATs: yes - Use PACOTS: yes - Use low airways: yes - Use high airways: yes

Route

SCEL DOZ SAME

ID Type Via Altitude Latitude Longitude Leg Dist Tot Dist Heading (true) Name
O SCEL APT - 0 ft / 0 m -33.38978˚ -70.79437˚ - 0 nm - Arturo Merino Benitez Intl
DOZ VOR - 0 ft / 0 m -32.83194˚ -68.79083˚ 106 nm 106 nm 72° / 71° MENDOZA VOR-DME
O SAME APT - 0 ft / 0 m -32.83175˚ -68.79294˚ 0 nm 106 nm 276° / 276° El Plumerillo

Altitude Profile

Advertisement - Login to hide

SCEL

Details ICAO SCEL (SCL)
Name Arturo Merino Benitez Intl
Region Chile
Timezone America/Santiago (UTC-3.0)
Stats Elevation 1,550 ft / 472 m (AMSL)
Location -33.389775° -70.794366°
Runways 2
Magnetic Variation 1.801° E

METAR

SCEL 170800Z 32003KT CAVOK 13/08 Q1013 NOSIG

Decode

TAF

TAF SCEL 170403Z 1706/1806 18004KT CAVOK TX32/1719Z TN15/1710Z TEMPO 1706/1714 VRB02KT 7000 NSC BECMG 1714/1716 19004KT BECMG 1717/1719 20012KT BECMG 1801/1803 18004KT

Decode

Departure Runways

ID Width Length Bearing (true) Bearing (mag) Surface Threshold Offset Overrun Length
17L 180 ft / 55 m 10,523 ft / 3,207 m 177.43° 175.63° Asphalt 0 ft / 0 m 0 ft / 0 m
17R 148 ft / 45 m 12,504 ft / 3,811 m 177.44° 175.64° Asphalt 0 ft / 0 m 0 ft / 0 m
35L 148 ft / 45 m 12,504 ft / 3,811 m 357.44° 355.64° Asphalt 0 ft / 0 m 0 ft / 0 m
35R 180 ft / 55 m 10,523 ft / 3,207 m 357.43° 355.63° Asphalt 1,800 ft / 549 m 0 ft / 0 m

SAME

Details ICAO SAME (MDZ)
Name El Plumerillo
Region Argentina
Timezone America/Argentina/Mendoza (UTC-3.0)
Stats Elevation 2,310 ft / 704 m (AMSL)
Location -32.831753° -68.792941°
Runways 1
Magnetic Variation 0.381° W

METAR

SAME 170800Z 18016KT 9999 NSC 17/01 Q1020

Decode

TAF

TAF SAME 170500Z 1706/1806 16015G25KT 5000 DU FEW040TCU TX23/1720Z TN17/1710Z BECMG 1713/17115 09010KT CAVOK

Decode

Destination Runways

ID Width Length Bearing (true) Bearing (mag) Surface Threshold Offset Overrun Length
18 177 ft / 54 m 9,915 ft / 3,022 m 180.83° 181.21° Concrete 381 ft / 116 m 0 ft / 0 m
36 177 ft / 54 m 9,915 ft / 3,022 m 0.83° 1.21° Concrete 361 ft / 110 m 0 ft / 0 m

Approach Navaids

Runway Type Ident Frequency Range Bearing (true) Bearing (mag) Slope Elevation
36 Localiser DO 109.90 MHz 18 nm / 33 km 0.90° 1.28° - 2,310 ft / 704 m (AMSL)
36 Glidescope DO 109.90 MHz 10 nm / 19 km 0.83° 1.21° 3.00° 2,311 ft / 704 m (AMSL)
36 DME DO 109.90 MHz 18 nm / 33 km - - - 2,311 ft / 704 m (AMSL)

Popular Alternatives